sensor_id;sensor_type;location;lat;lon;timestamp;pressure;altitude;pressure_sealevel;temperature;humidity
6532;BME280;3299;42.004;24.868;2022-07-19T00:00:46;98918.97;;;21.53;66.89
6532;BME280;3299;42.004;24.868;2022-07-19T00:03:15;98917.75;;;21.23;67.92
6532;BME280;3299;42.004;24.868;2022-07-19T00:05:42;98916.06;;;21.22;67.85
6532;BME280;3299;42.004;24.868;2022-07-19T00:08:08;98907.66;;;21.19;68.20
6532;BME280;3299;42.004;24.868;2022-07-19T00:10:34;98904.72;;;21.22;68.46
6532;BME280;3299;42.004;24.868;2022-07-19T00:12:59;98908.50;;;20.86;70.03
6532;BME280;3299;42.004;24.868;2022-07-19T00:15:24;98904.66;;;21.06;69.72
6532;BME280;3299;42.004;24.868;2022-07-19T00:17:50;98906.38;;;21.31;68.27
6532;BME280;3299;42.004;24.868;2022-07-19T00:20:19;98903.38;;;21.18;68.94
6532;BME280;3299;42.004;24.868;2022-07-19T00:22:45;98915.63;;;21.35;69.07
6532;BME280;3299;42.004;24.868;2022-07-19T00:25:11;98902.94;;;21.30;68.92
6532;BME280;3299;42.004;24.868;2022-07-19T00:27:36;98908.44;;;21.53;68.28
6532;BME280;3299;42.004;24.868;2022-07-19T00:30:04;98905.81;;;21.61;68.05
6532;BME280;3299;42.004;24.868;2022-07-19T00:32:30;98881.75;;;21.48;68.13
6532;BME280;3299;42.004;24.868;2022-07-19T00:34:55;98899.84;;;21.43;68.64
6532;BME280;3299;42.004;24.868;2022-07-19T00:37:20;98902.59;;;21.17;69.32
6532;BME280;3299;42.004;24.868;2022-07-19T00:39:46;98902.00;;;20.98;70.52
6532;BME280;3299;42.004;24.868;2022-07-19T00:42:11;98891.03;;;20.85;71.42
6532;BME280;3299;42.004;24.868;2022-07-19T00:44:39;98895.25;;;20.70;71.96
6532;BME280;3299;42.004;24.868;2022-07-19T00:47:05;98885.63;;;20.53;72.53
6532;BME280;3299;42.004;24.868;2022-07-19T00:49:30;98886.88;;;20.41;72.71
6532;BME280;3299;42.004;24.868;2022-07-19T00:51:57;98889.97;;;20.36;73.04
6532;BME280;3299;42.004;24.868;2022-07-19T00:54:23;98882.84;;;20.29;73.65
6532;BME280;3299;42.004;24.868;2022-07-19T00:56:50;98868.00;;;20.20;73.17
6532;BME280;3299;42.004;24.868;2022-07-19T00:59:17;98882.63;;;20.22;73.13
6532;BME280;3299;42.004;24.868;2022-07-19T01:01:43;98885.13;;;20.24;73.36
6532;BME280;3299;42.004;24.868;2022-07-19T01:04:10;98878.72;;;20.26;73.07
6532;BME280;3299;42.004;24.868;2022-07-19T01:06:35;98885.47;;;20.29;72.84
6532;BME280;3299;42.004;24.868;2022-07-19T01:09:02;98875.47;;;20.32;73.47
6532;BME280;3299;42.004;24.868;2022-07-19T01:11:27;98865.00;;;20.15;74.61
6532;BME280;3299;42.004;24.868;2022-07-19T01:13:53;98875.06;;;20.02;75.37
6532;BME280;3299;42.004;24.868;2022-07-19T01:16:18;98861.19;;;19.92;76.40
6532;BME280;3299;42.004;24.868;2022-07-19T01:18:44;98863.97;;;19.73;76.57
6532;BME280;3299;42.004;24.868;2022-07-19T01:21:20;98866.22;;;19.68;76.97
6532;BME280;3299;42.004;24.868;2022-07-19T01:23:46;98865.94;;;19.71;76.71
6532;BME280;3299;42.004;24.868;2022-07-19T01:26:12;98859.25;;;19.76;75.65
6532;BME280;3299;42.004;24.868;2022-07-19T01:28:38;98857.53;;;19.85;75.43
6532;BME280;3299;42.004;24.868;2022-07-19T01:31:03;98866.00;;;19.96;75.31
6532;BME280;3299;42.004;24.868;2022-07-19T01:33:29;98865.78;;;19.90;75.62
6532;BME280;3299;42.004;24.868;2022-07-19T01:35:54;98865.16;;;19.96;75.79
6532;BME280;3299;42.004;24.868;2022-07-19T01:38:19;98871.03;;;19.90;74.90
6532;BME280;3299;42.004;24.868;2022-07-19T01:40:45;98871.56;;;19.76;75.16
6532;BME280;3299;42.004;24.868;2022-07-19T01:43:10;98876.13;;;19.74;74.45
6532;BME280;3299;42.004;24.868;2022-07-19T01:45:36;98874.09;;;19.68;74.37
6532;BME280;3299;42.004;24.868;2022-07-19T01:48:01;98876.44;;;19.71;74.11
6532;BME280;3299;42.004;24.868;2022-07-19T01:50:27;98875.25;;;19.83;73.19
6532;BME280;3299;42.004;24.868;2022-07-19T01:52:52;98876.06;;;19.83;73.40
6532;BME280;3299;42.004;24.868;2022-07-19T01:55:19;98877.63;;;19.94;71.91
6532;BME280;3299;42.004;24.868;2022-07-19T01:57:46;98878.25;;;19.88;72.08
6532;BME280;3299;42.004;24.868;2022-07-19T02:00:12;98881.91;;;19.77;72.82
6532;BME280;3299;42.004;24.868;2022-07-19T02:02:38;98865.19;;;19.78;73.05
6532;BME280;3299;42.004;24.868;2022-07-19T02:05:04;98876.88;;;20.01;72.21
6532;BME280;3299;42.004;24.868;2022-07-19T02:07:29;98885.38;;;19.78;73.69
6532;BME280;3299;42.004;24.868;2022-07-19T02:09:56;98888.66;;;19.80;73.60
6532;BME280;3299;42.004;24.868;2022-07-19T02:12:22;98887.25;;;19.68;74.26
6532;BME280;3299;42.004;24.868;2022-07-19T02:14:47;98888.91;;;19.69;74.82
6532;BME280;3299;42.004;24.868;2022-07-19T02:17:13;98888.22;;;19.84;74.35
6532;BME280;3299;42.004;24.868;2022-07-19T02:19:38;98882.50;;;20.06;73.59
6532;BME280;3299;42.004;24.868;2022-07-19T02:22:04;98890.38;;;20.24;71.51
6532;BME280;3299;42.004;24.868;2022-07-19T02:24:29;98874.41;;;20.00;72.71
6532;BME280;3299;42.004;24.868;2022-07-19T02:26:55;98866.31;;;20.11;71.29
6532;BME280;3299;42.004;24.868;2022-07-19T02:29:20;98891.66;;;20.02;72.83
6532;BME280;3299;42.004;24.868;2022-07-19T02:31:46;98894.19;;;19.94;72.64
6532;BME280;3299;42.004;24.868;2022-07-19T02:34:11;98894.72;;;19.98;72.40
6532;BME280;3299;42.004;24.868;2022-07-19T02:36:36;98904.88;;;20.10;71.42
6532;BME280;3299;42.004;24.868;2022-07-19T02:39:02;98911.34;;;20.16;70.76
6532;BME280;3299;42.004;24.868;2022-07-19T02:41:27;98911.94;;;19.75;72.50
6532;BME280;3299;42.004;24.868;2022-07-19T02:43:53;98907.13;;;19.53;73.48
6532;BME280;3299;42.004;24.868;2022-07-19T02:46:18;98905.78;;;19.22;76.00
6532;BME280;3299;42.004;24.868;2022-07-19T02:48:44;98910.63;;;19.26;75.93
6532;BME280;3299;42.004;24.868;2022-07-19T02:51:10;98899.44;;;19.15;76.51
6532;BME280;3299;42.004;24.868;2022-07-19T02:53:36;98889.25;;;19.39;74.55
6532;BME280;3299;42.004;24.868;2022-07-19T02:56:02;98900.28;;;19.15;76.95
6532;BME280;3299;42.004;24.868;2022-07-19T02:58:28;98902.25;;;19.04;77.55
6532;BME280;3299;42.004;24.868;2022-07-19T03:00:53;98909.06;;;18.97;77.92
6532;BME280;3299;42.004;24.868;2022-07-19T03:03:19;98906.75;;;19.21;75.88
6532;BME280;3299;42.004;24.868;2022-07-19T03:06:03;98895.94;;;19.33;72.42
6532;BME280;3299;42.004;24.868;2022-07-19T03:08:28;98906.63;;;19.22;71.50
6532;BME280;3299;42.004;24.868;2022-07-19T03:10:54;98906.88;;;18.92;71.58
6532;BME280;3299;42.004;24.868;2022-07-19T03:13:19;98918.97;;;19.03;71.59
6532;BME280;3299;42.004;24.868;2022-07-19T03:15:45;98916.13;;;18.96;72.52
6532;BME280;3299;42.004;24.868;2022-07-19T03:18:10;98920.94;;;19.01;71.68
6532;BME280;3299;42.004;24.868;2022-07-19T03:20:36;98914.72;;;19.02;71.70
6532;BME280;3299;42.004;24.868;2022-07-19T03:23:01;98915.38;;;19.04;72.60
6532;BME280;3299;42.004;24.868;2022-07-19T03:25:27;98918.13;;;19.12;70.50
6532;BME280;3299;42.004;24.868;2022-07-19T03:27:53;98909.41;;;19.11;70.26
6532;BME280;3299;42.004;24.868;2022-07-19T03:30:18;98914.34;;;19.24;70.42
6532;BME280;3299;42.004;24.868;2022-07-19T03:32:44;98901.22;;;19.24;70.13
6532;BME280;3299;42.004;24.868;2022-07-19T03:35:09;98913.94;;;19.19;71.16
6532;BME280;3299;42.004;24.868;2022-07-19T03:37:35;98909.63;;;19.27;69.94
6532;BME280;3299;42.004;24.868;2022-07-19T03:40:00;98919.41;;;19.52;68.69
6532;BME280;3299;42.004;24.868;2022-07-19T03:42:26;98911.78;;;19.59;68.68
6532;BME280;3299;42.004;24.868;2022-07-19T03:44:51;98922.06;;;19.70;67.85
6532;BME280;3299;42.004;24.868;2022-07-19T03:47:17;98916.50;;;19.73;67.24
6532;BME280;3299;42.004;24.868;2022-07-19T03:49:42;98922.72;;;19.72;68.06
6532;BME280;3299;42.004;24.868;2022-07-19T03:52:08;98922.81;;;19.80;67.85
6532;BME280;3299;42.004;24.868;2022-07-19T03:54:33;98927.31;;;20.05;66.83
6532;BME280;3299;42.004;24.868;2022-07-19T03:56:58;98918.59;;;20.04;66.81
6532;BME280;3299;42.004;24.868;2022-07-19T03:59:24;98924.16;;;20.19;66.82
6532;BME280;3299;42.004;24.868;2022-07-19T04:01:50;98919.66;;;20.29;66.29
6532;BME280;3299;42.004;24.868;2022-07-19T04:04:16;98934.47;;;20.38;64.94
6532;BME280;3299;42.004;24.868;2022-07-19T04:06:41;98931.59;;;20.49;64.70
6532;BME280;3299;42.004;24.868;2022-07-19T04:09:07;98930.38;;;20.61;65.05
6532;BME280;3299;42.004;24.868;2022-07-19T04:11:32;98929.09;;;20.65;65.38
6532;BME280;3299;42.004;24.868;2022-07-19T04:13:57;98933.56;;;20.72;65.35
6532;BME280;3299;42.004;24.868;2022-07-19T04:16:23;98935.75;;;20.85;65.06
6532;BME280;3299;42.004;24.868;2022-07-19T04:18:48;98927.22;;;20.83;64.74
6532;BME280;3299;42.004;24.868;2022-07-19T04:21:14;98927.47;;;20.72;64.99
6532;BME280;3299;42.004;24.868;2022-07-19T04:23:39;98929.44;;;20.70;65.75
6532;BME280;3299;42.004;24.868;2022-07-19T04:26:05;98928.53;;;20.53;66.41
6532;BME280;3299;42.004;24.868;2022-07-19T04:28:30;98929.13;;;20.73;65.20
6532;BME280;3299;42.004;24.868;2022-07-19T04:30:55;98932.13;;;20.78;64.15
6532;BME280;3299;42.004;24.868;2022-07-19T04:33:21;98930.81;;;20.74;64.61
6532;BME280;3299;42.004;24.868;2022-07-19T04:35:46;98930.19;;;20.80;64.33
6532;BME280;3299;42.004;24.868;2022-07-19T04:38:12;98934.19;;;20.66;65.51
6532;BME280;3299;42.004;24.868;2022-07-19T04:40:38;98933.50;;;20.64;66.14
6532;BME280;3299;42.004;24.868;2022-07-19T04:43:04;98932.34;;;20.59;66.58
6532;BME280;3299;42.004;24.868;2022-07-19T04:45:29;98940.22;;;20.59;66.59
6532;BME280;3299;42.004;24.868;2022-07-19T04:47:55;98938.25;;;20.61;66.72
6532;BME280;3299;42.004;24.868;2022-07-19T04:50:20;98930.47;;;20.77;65.74
6532;BME280;3299;42.004;24.868;2022-07-19T04:52:46;98932.97;;;20.78;65.34
6532;BME280;3299;42.004;24.868;2022-07-19T04:55:11;98940.00;;;20.95;64.91
6532;BME280;3299;42.004;24.868;2022-07-19T04:57:37;98937.53;;;21.02;64.65
6532;BME280;3299;42.004;24.868;2022-07-19T05:00:08;98940.97;;;20.94;64.26
6532;BME280;3299;42.004;24.868;2022-07-19T05:02:37;98936.50;;;20.95;64.56
6532;BME280;3299;42.004;24.868;2022-07-19T05:05:03;98939.44;;;21.17;63.44
6532;BME280;3299;42.004;24.868;2022-07-19T05:07:29;98935.47;;;21.21;63.05
6532;BME280;3299;42.004;24.868;2022-07-19T05:09:54;98941.66;;;21.46;62.21
6532;BME280;3299;42.004;24.868;2022-07-19T05:12:20;98939.66;;;21.40;62.68
6532;BME280;3299;42.004;24.868;2022-07-19T05:14:45;98943.94;;;21.33;62.44
6532;BME280;3299;42.004;24.868;2022-07-19T05:17:11;98947.22;;;21.35;62.38
6532;BME280;3299;42.004;24.868;2022-07-19T05:19:36;98942.94;;;21.34;62.29
6532;BME280;3299;42.004;24.868;2022-07-19T05:22:02;98936.06;;;21.49;62.00
6532;BME280;3299;42.004;24.868;2022-07-19T05:24:27;98947.28;;;21.59;61.57
6532;BME280;3299;42.004;24.868;2022-07-19T05:26:52;98945.66;;;21.58;61.75
6532;BME280;3299;42.004;24.868;2022-07-19T05:29:19;98940.09;;;21.69;61.47
6532;BME280;3299;42.004;24.868;2022-07-19T05:31:44;98927.94;;;21.68;61.35
6532;BME280;3299;42.004;24.868;2022-07-19T05:34:10;98941.44;;;21.81;60.98
6532;BME280;3299;42.004;24.868;2022-07-19T05:36:35;98939.81;;;21.88;60.19
6532;BME280;3299;42.004;24.868;2022-07-19T05:39:01;98935.69;;;21.77;60.33
6532;BME280;3299;42.004;24.868;2022-07-19T05:41:27;98940.16;;;21.85;60.60
6532;BME280;3299;42.004;24.868;2022-07-19T05:43:52;98952.00;;;22.05;60.36
6532;BME280;3299;42.004;24.868;2022-07-19T05:46:18;98949.06;;;22.16;59.29
6532;BME280;3299;42.004;24.868;2022-07-19T05:48:44;98950.69;;;22.33;59.04
6532;BME280;3299;42.004;24.868;2022-07-19T05:51:09;98946.22;;;22.33;59.71
6532;BME280;3299;42.004;24.868;2022-07-19T05:53:36;98952.34;;;22.26;59.35
6532;BME280;3299;42.004;24.868;2022-07-19T05:56:02;98952.31;;;22.42;58.70
6532;BME280;3299;42.004;24.868;2022-07-19T05:58:28;98959.59;;;22.40;58.46
6532;BME280;3299;42.004;24.868;2022-07-19T06:00:54;98957.28;;;22.53;58.20
6532;BME280;3299;42.004;24.868;2022-07-19T06:03:38;98961.91;;;22.59;59.48
6532;BME280;3299;42.004;24.868;2022-07-19T06:06:04;98958.94;;;22.70;60.51
6532;BME280;3299;42.004;24.868;2022-07-19T06:08:30;98963.19;;;22.87;58.62
6532;BME280;3299;42.004;24.868;2022-07-19T06:10:55;98964.03;;;22.87;61.02
6532;BME280;3299;42.004;24.868;2022-07-19T06:13:22;98962.63;;;23.07;60.42
6532;BME280;3299;42.004;24.868;2022-07-19T06:15:47;98946.78;;;23.15;61.47
6532;BME280;3299;42.004;24.868;2022-07-19T06:18:13;98973.91;;;23.48;61.57
6532;BME280;3299;42.004;24.868;2022-07-19T06:20:38;98962.91;;;23.67;61.05
6532;BME280;3299;42.004;24.868;2022-07-19T06:23:04;98970.50;;;23.62;60.73
6532;BME280;3299;42.004;24.868;2022-07-19T06:25:29;98966.31;;;23.75;60.70
6532;BME280;3299;42.004;24.868;2022-07-19T06:27:55;98965.59;;;23.89;59.80
6532;BME280;3299;42.004;24.868;2022-07-19T06:30:20;98968.97;;;24.06;59.13
6532;BME280;3299;42.004;24.868;2022-07-19T06:32:46;98975.59;;;24.24;58.47
6532;BME280;3299;42.004;24.868;2022-07-19T06:35:11;98971.41;;;24.29;59.06
6532;BME280;3299;42.004;24.868;2022-07-19T06:37:37;98964.03;;;24.39;57.87
6532;BME280;3299;42.004;24.868;2022-07-19T06:40:03;98970.28;;;24.46;57.48
6532;BME280;3299;42.004;24.868;2022-07-19T06:42:29;98960.63;;;24.53;57.38
6532;BME280;3299;42.004;24.868;2022-07-19T06:44:55;98961.22;;;24.63;57.82
6532;BME280;3299;42.004;24.868;2022-07-19T06:47:21;98963.22;;;24.76;58.22
6532;BME280;3299;42.004;24.868;2022-07-19T06:49:47;98962.00;;;24.86;57.73
6532;BME280;3299;42.004;24.868;2022-07-19T06:52:12;98960.16;;;25.01;57.41
6532;BME280;3299;42.004;24.868;2022-07-19T06:54:37;98955.41;;;25.11;57.27
6532;BME280;3299;42.004;24.868;2022-07-19T06:57:03;98953.78;;;25.25;56.77
6532;BME280;3299;42.004;24.868;2022-07-19T06:59:28;98949.84;;;25.35;56.76
6532;BME280;3299;42.004;24.868;2022-07-19T07:01:54;98955.25;;;25.42;56.34
6532;BME280;3299;42.004;24.868;2022-07-19T07:04:19;98945.59;;;25.55;55.54
6532;BME280;3299;42.004;24.868;2022-07-19T07:06:45;98959.78;;;25.62;54.82
6532;BME280;3299;42.004;24.868;2022-07-19T07:09:10;98950.06;;;25.69;55.00
6532;BME280;3299;42.004;24.868;2022-07-19T07:11:36;98944.81;;;25.76;54.48
6532;BME280;3299;42.004;24.868;2022-07-19T07:14:01;98941.41;;;25.82;54.07
6532;BME280;3299;42.004;24.868;2022-07-19T07:16:26;98945.44;;;25.92;52.60
6532;BME280;3299;42.004;24.868;2022-07-19T07:18:52;98945.44;;;25.92;51.80
6532;BME280;3299;42.004;24.868;2022-07-19T07:21:17;98947.06;;;25.93;51.94
6532;BME280;3299;42.004;24.868;2022-07-19T07:23:43;98950.78;;;25.99;51.36
6532;BME280;3299;42.004;24.868;2022-07-19T07:26:09;98950.88;;;26.05;51.02
6532;BME280;3299;42.004;24.868;2022-07-19T07:28:34;98948.28;;;26.12;50.81
6532;BME280;3299;42.004;24.868;2022-07-19T07:31:00;98946.88;;;26.16;51.31
6532;BME280;3299;42.004;24.868;2022-07-19T07:33:26;98950.03;;;26.26;49.69
6532;BME280;3299;42.004;24.868;2022-07-19T07:35:51;98944.16;;;26.30;46.79
6532;BME280;3299;42.004;24.868;2022-07-19T07:38:17;98947.50;;;26.39;47.61
6532;BME280;3299;42.004;24.868;2022-07-19T07:40:43;98952.88;;;26.45;45.46
6532;BME280;3299;42.004;24.868;2022-07-19T07:43:08;98951.66;;;26.48;44.07
6532;BME280;3299;42.004;24.868;2022-07-19T07:45:34;98953.38;;;26.55;42.83
6532;BME280;3299;42.004;24.868;2022-07-19T07:47:59;98954.19;;;26.56;39.87
6532;BME280;3299;42.004;24.868;2022-07-19T07:50:24;98955.84;;;26.57;36.38
6532;BME280;3299;42.004;24.868;2022-07-19T07:52:50;98962.25;;;26.69;35.24
6532;BME280;3299;42.004;24.868;2022-07-19T07:55:16;98960.44;;;26.69;36.10
6532;BME280;3299;42.004;24.868;2022-07-19T07:57:42;98954.34;;;26.75;34.16
6532;BME280;3299;42.004;24.868;2022-07-19T08:00:08;98960.25;;;26.71;34.14
6532;BME280;3299;42.004;24.868;2022-07-19T08:02:40;98961.09;;;26.78;34.02
6532;BME280;3299;42.004;24.868;2022-07-19T08:05:07;98963.81;;;26.84;34.19
6532;BME280;3299;42.004;24.868;2022-07-19T08:07:32;98956.72;;;26.91;33.91
6532;BME280;3299;42.004;24.868;2022-07-19T08:09:57;98953.09;;;26.71;33.05
6532;BME280;3299;42.004;24.868;2022-07-19T08:12:25;98955.06;;;26.63;33.40
6532;BME280;3299;42.004;24.868;2022-07-19T08:14:50;98948.50;;;26.59;33.55
6532;BME280;3299;42.004;24.868;2022-07-19T08:17:16;98947.75;;;26.71;34.52
6532;BME280;3299;42.004;24.868;2022-07-19T08:19:41;98951.16;;;26.86;34.66
6532;BME280;3299;42.004;24.868;2022-07-19T08:22:06;98954.66;;;26.93;34.16
6532;BME280;3299;42.004;24.868;2022-07-19T08:24:32;98956.53;;;26.99;33.03
6532;BME280;3299;42.004;24.868;2022-07-19T08:26:57;98951.63;;;26.96;33.08
6532;BME280;3299;42.004;24.868;2022-07-19T08:29:23;98951.66;;;27.03;31.92
6532;BME280;3299;42.004;24.868;2022-07-19T08:31:48;98949.03;;;27.09;33.09
6532;BME280;3299;42.004;24.868;2022-07-19T08:34:13;98951.75;;;27.16;31.93
6532;BME280;3299;42.004;24.868;2022-07-19T08:36:39;98924.28;;;27.02;32.99
6532;BME280;3299;42.004;24.868;2022-07-19T08:39:04;98929.78;;;27.01;33.67
6532;BME280;3299;42.004;24.868;2022-07-19T08:41:30;98941.78;;;26.90;33.70
6532;BME280;3299;42.004;24.868;2022-07-19T08:43:55;98940.38;;;26.94;34.56
6532;BME280;3299;42.004;24.868;2022-07-19T08:46:21;98938.13;;;26.91;34.09
6532;BME280;3299;42.004;24.868;2022-07-19T08:48:47;98935.31;;;26.72;32.53
6532;BME280;3299;42.004;24.868;2022-07-19T08:51:18;98946.69;;;26.93;32.41
6532;BME280;3299;42.004;24.868;2022-07-19T08:53:43;98937.34;;;27.04;32.54
6532;BME280;3299;42.004;24.868;2022-07-19T08:56:10;98940.88;;;27.11;31.93
6532;BME280;3299;42.004;24.868;2022-07-19T08:58:54;98936.03;;;27.21;32.53
6532;BME280;3299;42.004;24.868;2022-07-19T09:01:20;98933.78;;;27.18;32.07
6532;BME280;3299;42.004;24.868;2022-07-19T09:06:47;98924.34;;;27.15;32.09
6532;BME280;3299;42.004;24.868;2022-07-19T09:09:21;98911.53;;;26.91;32.86
6532;BME280;3299;42.004;24.868;2022-07-19T09:11:49;98926.94;;;27.02;32.74
6532;BME280;3299;42.004;24.868;2022-07-19T09:14:25;98924.28;;;27.02;32.93
6532;BME280;3299;42.004;24.868;2022-07-19T09:19:22;98924.09;;;27.44;33.01
6532;BME280;3299;42.004;24.868;2022-07-19T09:24:18;98919.88;;;27.69;32.44
6532;BME280;3299;42.004;24.868;2022-07-19T09:26:58;98922.94;;;27.66;32.22
6532;BME280;3299;42.004;24.868;2022-07-19T09:29:25;98925.97;;;27.57;32.03
6532;BME280;3299;42.004;24.868;2022-07-19T09:32:17;98925.75;;;27.52;31.76
6532;BME280;3299;42.004;24.868;2022-07-19T09:34:50;98920.50;;;27.71;32.32
6532;BME280;3299;42.004;24.868;2022-07-19T09:37:21;98916.66;;;27.87;32.25
6532;BME280;3299;42.004;24.868;2022-07-19T09:39:50;98912.81;;;28.02;32.39
6532;BME280;3299;42.004;24.868;2022-07-19T09:42:43;98902.38;;;28.07;32.29
6532;BME280;3299;42.004;24.868;2022-07-19T09:45:12;98909.94;;;28.23;32.00
6532;BME280;3299;42.004;24.868;2022-07-19T09:47:45;98905.88;;;28.40;31.72
6532;BME280;3299;42.004;24.868;2022-07-19T09:50:16;98918.56;;;28.51;31.64
6532;BME280;3299;42.004;24.868;2022-07-19T09:52:43;98908.94;;;28.57;31.91
6532;BME280;3299;42.004;24.868;2022-07-19T09:55:09;98893.56;;;28.52;31.97
6532;BME280;3299;42.004;24.868;2022-07-19T09:57:38;98913.25;;;28.58;32.39
6532;BME280;3299;42.004;24.868;2022-07-19T10:00:05;98917.31;;;28.67;32.16
6532;BME280;3299;42.004;24.868;2022-07-19T10:02:36;98911.59;;;28.70;31.66
6532;BME280;3299;42.004;24.868;2022-07-19T10:05:03;98915.25;;;28.88;31.37
6532;BME280;3299;42.004;24.868;2022-07-19T10:07:28;98914.41;;;28.88;30.44
6532;BME280;3299;42.004;24.868;2022-07-19T10:09:54;98910.34;;;28.79;31.40
6532;BME280;3299;42.004;24.868;2022-07-19T10:12:21;98905.84;;;28.60;31.55
6532;BME280;3299;42.004;24.868;2022-07-19T10:14:46;98902.75;;;28.69;31.66
6532;BME280;3299;42.004;24.868;2022-07-19T10:17:30;98893.97;;;28.36;31.40
6532;BME280;3299;42.004;24.868;2022-07-19T10:19:56;98891.13;;;28.44;31.27
6532;BME280;3299;42.004;24.868;2022-07-19T10:22:24;98883.13;;;28.44;31.32
6532;BME280;3299;42.004;24.868;2022-07-19T10:29:50;98883.31;;;28.62;32.27
6532;BME280;3299;42.004;24.868;2022-07-19T10:32:16;98849.69;;;28.74;32.65
6532;BME280;3299;42.004;24.868;2022-07-19T10:34:44;98872.13;;;29.11;31.76
6532;BME280;3299;42.004;24.868;2022-07-19T10:37:12;98878.75;;;28.95;31.65
6532;BME280;3299;42.004;24.868;2022-07-19T10:39:39;98868.69;;;28.97;30.88
6532;BME280;3299;42.004;24.868;2022-07-19T10:42:20;98863.94;;;29.12;31.02
6532;BME280;3299;42.004;24.868;2022-07-19T10:50:02;98871.69;;;29.95;30.96
6532;BME280;3299;42.004;24.868;2022-07-19T11:00:26;98863.63;;;30.75;28.48
6532;BME280;3299;42.004;24.868;2022-07-19T11:03:26;98857.22;;;30.76;28.75
6532;BME280;3299;42.004;24.868;2022-07-19T11:05:46;98848.31;;;30.40;29.20
6532;BME280;3299;42.004;24.868;2022-07-19T11:08:12;98854.69;;;30.63;29.02
6532;BME280;3299;42.004;24.868;2022-07-19T11:10:37;98853.09;;;30.80;29.57
6532;BME280;3299;42.004;24.868;2022-07-19T11:13:02;98852.19;;;31.04;28.64
6532;BME280;3299;42.004;24.868;2022-07-19T11:15:28;98847.75;;;30.80;28.82
6532;BME280;3299;42.004;24.868;2022-07-19T11:18:04;98840.00;;;30.90;29.34
6532;BME280;3299;42.004;24.868;2022-07-19T11:20:31;98835.47;;;30.91;28.34
6532;BME280;3299;42.004;24.868;2022-07-19T11:22:58;98837.09;;;30.92;28.71
6532;BME280;3299;42.004;24.868;2022-07-19T11:25:35;98830.31;;;31.07;28.34
6532;BME280;3299;42.004;24.868;2022-07-19T11:28:20;98820.94;;;31.34;28.44
6532;BME280;3299;42.004;24.868;2022-07-19T11:30:45;98826.31;;;31.34;27.76
6532;BME280;3299;42.004;24.868;2022-07-19T11:33:16;98832.38;;;31.41;27.76
6532;BME280;3299;42.004;24.868;2022-07-19T11:35:55;98827.94;;;31.35;27.54
6532;BME280;3299;42.004;24.868;2022-07-19T11:38:22;98832.41;;;31.82;26.88
6532;BME280;3299;42.004;24.868;2022-07-19T11:40:48;98828.50;;;32.19;27.07
6532;BME280;3299;42.004;24.868;2022-07-19T11:43:13;98827.03;;;32.35;26.26
6532;BME280;3299;42.004;24.868;2022-07-19T11:45:46;98819.56;;;32.25;26.19
6532;BME280;3299;42.004;24.868;2022-07-19T11:48:12;98814.63;;;32.22;26.50
6532;BME280;3299;42.004;24.868;2022-07-19T11:50:57;98812.09;;;32.50;25.93
6532;BME280;3299;42.004;24.868;2022-07-19T11:53:22;98820.25;;;32.55;25.94
6532;BME280;3299;42.004;24.868;2022-07-19T11:55:48;98821.63;;;32.23;27.42
6532;BME280;3299;42.004;24.868;2022-07-19T11:58:14;98820.59;;;32.47;25.21
6532;BME280;3299;42.004;24.868;2022-07-19T12:00:39;98797.53;;;32.46;24.95
6532;BME280;3299;42.004;24.868;2022-07-19T12:03:14;98812.88;;;32.51;25.30
6532;BME280;3299;42.004;24.868;2022-07-19T12:05:53;98809.19;;;32.52;25.55
6532;BME280;3299;42.004;24.868;2022-07-19T12:08:19;98808.56;;;32.84;25.39
6532;BME280;3299;42.004;24.868;2022-07-19T12:10:47;98815.94;;;33.05;24.21
6532;BME280;3299;42.004;24.868;2022-07-19T12:13:32;98808.50;;;33.07;24.28
6532;BME280;3299;42.004;24.868;2022-07-19T12:16:00;98800.06;;;33.27;23.96
6532;BME280;3299;42.004;24.868;2022-07-19T12:18:52;98805.91;;;33.12;24.74
6532;BME280;3299;42.004;24.868;2022-07-19T12:24:21;98795.75;;;32.63;24.94
6532;BME280;3299;42.004;24.868;2022-07-19T12:29:30;98793.22;;;33.36;24.12
6532;BME280;3299;42.004;24.868;2022-07-19T12:32:07;98788.28;;;33.16;23.69
6532;BME280;3299;42.004;24.868;2022-07-19T12:40:04;98786.88;;;32.74;23.75
6532;BME280;3299;42.004;24.868;2022-07-19T12:42:53;98774.25;;;32.98;24.93
6532;BME280;3299;42.004;24.868;2022-07-19T12:45:33;98765.84;;;33.34;23.77
6532;BME280;3299;42.004;24.868;2022-07-19T12:47:59;98767.25;;;33.69;23.80
6532;BME280;3299;42.004;24.868;2022-07-19T12:50:35;98775.81;;;33.99;23.48
6532;BME280;3299;42.004;24.868;2022-07-19T12:53:05;98769.19;;;34.23;23.23
6532;BME280;3299;42.004;24.868;2022-07-19T12:55:32;98776.25;;;34.46;23.23
6532;BME280;3299;42.004;24.868;2022-07-19T12:57:59;98771.94;;;34.45;23.46
6532;BME280;3299;42.004;24.868;2022-07-19T13:00:26;98761.97;;;33.74;23.30
6532;BME280;3299;42.004;24.868;2022-07-19T13:02:53;98757.59;;;34.01;24.03
6532;BME280;3299;42.004;24.868;2022-07-19T13:05:20;98744.88;;;33.64;23.68
6532;BME280;3299;42.004;24.868;2022-07-19T13:07:46;98759.38;;;33.79;23.62
6532;BME280;3299;42.004;24.868;2022-07-19T13:10:12;98757.66;;;33.73;23.38
6532;BME280;3299;42.004;24.868;2022-07-19T13:12:39;98754.38;;;33.55;24.00
6532;BME280;3299;42.004;24.868;2022-07-19T13:15:05;98752.00;;;33.42;24.19
6532;BME280;3299;42.004;24.868;2022-07-19T13:17:31;98745.44;;;33.66;23.58
6532;BME280;3299;42.004;24.868;2022-07-19T13:19:57;98752.41;;;33.78;23.46
6532;BME280;3299;42.004;24.868;2022-07-19T13:22:23;98748.03;;;34.10;22.95
6532;BME280;3299;42.004;24.868;2022-07-19T13:24:49;98742.84;;;33.87;23.04
6532;BME280;3299;42.004;24.868;2022-07-19T13:27:14;98740.84;;;33.94;23.00
6532;BME280;3299;42.004;24.868;2022-07-19T13:29:42;98745.84;;;34.07;23.48
6532;BME280;3299;42.004;24.868;2022-07-19T13:32:08;98746.06;;;33.73;22.78
6532;BME280;3299;42.004;24.868;2022-07-19T13:34:35;98743.75;;;34.26;22.77
6532;BME280;3299;42.004;24.868;2022-07-19T13:37:01;98737.84;;;34.72;22.62
6532;BME280;3299;42.004;24.868;2022-07-19T13:39:26;98744.06;;;34.72;22.34
6532;BME280;3299;42.004;24.868;2022-07-19T13:41:52;98739.63;;;34.83;22.67
6532;BME280;3299;42.004;24.868;2022-07-19T13:44:17;98737.25;;;34.86;22.14
6532;BME280;3299;42.004;24.868;2022-07-19T13:46:43;98735.59;;;35.07;22.01